Time;durP1;ratioP1;P1;durP2;ratioP2;P2;SDS_P1;SDS_P2;PMS_P1;PMS_P2;Temp;Humidity;BMP_temperature;BMP_pressure;BME280_temperature;BME280_humidity;BME280_pressure;Samples;Min_cycle;Max_cycle;Signal;HPM_P1;HPM_P2
2022/09/15 00:00:17;;;;;;;;;1.75;1.25;;;;;21.73;58.52;100146.44;5079457;27;45593;-50
2022/09/15 00:02:42;;;;;;;;;2.25;1.00;;;;;21.70;58.77;100155.50;5058343;28;69747;-51
2022/09/15 00:05:08;;;;;;;;;1.75;1.50;;;;;21.67;58.96;100155.75;5075816;27;45245;-47
2022/09/15 00:07:34;;;;;;;;;2.50;1.25;;;;;21.64;58.87;100163.16;5072903;27;45394;-49
2022/09/15 00:09:59;;;;;;;;;2.50;1.00;;;;;21.59;58.65;100161.72;5054808;28;45181;-49
2022/09/15 00:12:26;;;;;;;;;1.00;1.00;;;;;21.58;58.99;100157.41;5078182;28;71724;-49
2022/09/15 00:14:51;;;;;;;;;0.00;0.00;;;;;21.55;58.63;100160.31;5080489;27;45595;-48
2022/09/15 00:17:17;;;;;;;;;2.50;1.25;;;;;21.54;58.79;100163.09;5069491;27;47381;-47
2022/09/15 00:19:42;;;;;;;;;4.00;2.25;;;;;21.52;58.89;100165.88;5051207;28;45647;-47
2022/09/15 00:22:07;;;;;;;;;3.00;2.00;;;;;21.52;58.65;100162.38;5071975;27;58680;-51
2022/09/15 00:24:33;;;;;;;;;2.25;2.00;;;;;21.52;58.88;100163.22;5076516;27;68984;-52
2022/09/15 00:26:58;;;;;;;;;1.00;1.00;;;;;21.53;58.42;100159.59;5073114;28;45299;-49
2022/09/15 00:29:23;;;;;;;;;1.50;1.50;;;;;21.52;58.74;100159.72;5073264;27;45444;-48
2022/09/15 00:31:49;;;;;;;;;1.00;1.00;;;;;21.48;58.27;100164.44;5060662;28;46279;-50
2022/09/15 00:34:15;;;;;;;;;2.00;2.00;;;;;21.46;58.86;100161.06;5078334;27;45351;-50
2022/09/15 00:36:40;;;;;;;;;1.00;1.00;;;;;21.46;58.57;100166.38;5054581;28;45461;-49
2022/09/15 00:39:05;;;;;;;;;2.00;2.00;;;;;21.45;59.16;100164.66;5078773;27;45488;-51
2022/09/15 00:41:31;;;;;;;;;1.50;1.00;;;;;21.44;58.94;100160.28;5066375;28;56435;-45
2022/09/15 00:43:58;;;;;;;;;2.25;2.25;;;;;21.43;58.87;100163.94;5057980;28;45383;-47
2022/09/15 00:46:30;;;;;;;;;2.00;1.50;;;;;21.41;59.29;100171.22;5054560;28;45545;-47
2022/09/15 00:49:10;;;;;;;;;3.50;2.50;;;;;21.38;58.99;100172.28;5056274;28;45362;-51
2022/09/15 00:51:45;;;;;;;;;5.00;4.00;;;;;21.37;59.45;100169.75;5058226;28;45435;-46
2022/09/15 00:54:15;;;;;;;;;4.00;4.00;;;;;21.34;59.14;100172.69;5057708;28;45602;-50
2022/09/15 00:56:43;;;;;;;;;4.00;3.00;;;;;21.31;58.77;100180.91;5057031;28;45454;-48
2022/09/15 00:59:13;;;;;;;;;4.00;4.00;;;;;21.28;58.90;100176.66;5074915;27;45379;-49
2022/09/15 01:01:39;;;;;;;;;4.75;4.00;;;;;21.27;59.01;100184.78;5058943;27;47287;-47
2022/09/15 01:04:05;;;;;;;;;3.00;3.00;;;;;21.23;59.61;100184.19;5076946;27;45471;-48
2022/09/15 01:06:35;;;;;;;;;7.00;5.00;;;;;21.19;60.00;100191.56;5055601;28;64135;-47
2022/09/15 01:09:11;;;;;;;;;7.00;6.00;;;;;21.17;59.55;100197.97;5078334;27;45351;-48
2022/09/15 01:11:37;;;;;;;;;8.50;8.00;;;;;21.13;59.37;100197.38;5051903;28;45379;-49
2022/09/15 01:14:03;;;;;;;;;6.50;5.50;;;;;21.11;59.58;100196.66;5070401;27;72949;-47
2022/09/15 01:17:08;;;;;;;;;10.25;6.50;;;;;21.08;59.54;100215.53;5072388;27;45437;-47
2022/09/15 01:20:02;;;;;;;;;5.00;5.00;;;;;21.07;59.99;100200.56;5075970;27;45300;-49
2022/09/15 01:22:57;;;;;;;;;6.75;5.25;;;;;21.03;60.24;100204.41;5072932;27;45472;-47
2022/09/15 01:25:41;;;;;;;;;7.25;6.00;;;;;20.98;60.11;100203.91;5075538;27;45427;-49
2022/09/15 01:28:58;;;;;;;;;7.00;5.50;;;;;20.91;59.60;100203.56;5081280;27;45446;-49
2022/09/15 01:34:33;;;;;;;;;5.75;5.00;;;;;20.87;60.33;100210.09;5070368;27;45783;-49
2022/09/15 01:37:05;;;;;;;;;9.75;7.00;;;;;20.86;59.97;100216.38;5071094;28;45412;-47
2022/09/15 01:39:35;;;;;;;;;5.50;5.00;;;;;20.85;59.98;100212.84;5060199;28;45429;-47
2022/09/15 01:42:10;;;;;;;;;3.50;3.50;;;;;20.83;60.10;100206.81;5046307;28;45383;-47
2022/09/15 01:44:45;;;;;;;;;6.25;4.75;;;;;20.85;60.07;100210.19;5052111;28;47691;-46
2022/09/15 01:47:12;;;;;;;;;3.75;3.75;;;;;20.84;60.46;100220.97;5053861;27;45526;-47
2022/09/15 01:50:00;;;;;;;;;3.00;3.00;;;;;20.80;60.42;100220.34;5059833;28;45368;-47
2022/09/15 01:52:27;;;;;;;;;5.00;4.00;;;;;20.75;60.17;100219.03;5069890;27;45402;-47
2022/09/15 01:54:56;;;;;;;;;5.00;3.75;;;;;20.74;60.29;100220.00;5052585;28;46933;-50
2022/09/15 01:57:22;;;;;;;;;4.50;4.00;;;;;20.73;60.55;100219.13;5075477;27;45391;-45
2022/09/15 01:59:48;;;;;;;;;3.25;3.00;;;;;20.72;60.64;100219.28;5069203;28;45486;-49
2022/09/15 02:02:23;;;;;;;;;5.00;4.25;;;;;20.70;60.34;100218.53;5043662;28;45561;-47
2022/09/15 02:04:54;;;;;;;;;4.50;4.00;;;;;20.65;60.89;100217.09;5070533;27;45780;-47
2022/09/15 02:07:35;;;;;;;;;4.00;3.00;;;;;20.62;60.83;100217.31;5053717;28;45423;-48
2022/09/15 02:10:10;;;;;;;;;5.00;4.00;;;;;20.61;60.47;100218.31;5056964;28;45393;-47
2022/09/15 02:12:46;;;;;;;;;7.00;4.75;;;;;20.61;60.48;100222.72;5070423;27;46483;-46
2022/09/15 02:15:14;;;;;;;;;6.75;4.25;;;;;20.59;60.17;100225.53;5069663;28;46346;-45
2022/09/15 02:17:45;;;;;;;;;5.00;4.75;;;;;20.53;60.63;100220.66;5058933;28;45529;-51
2022/09/15 02:20:32;;;;;;;;;6.25;5.25;;;;;20.49;60.11;100221.88;5053410;28;45349;-47
2022/09/15 02:23:03;;;;;;;;;6.25;5.50;;;;;20.46;59.88;100219.44;5080629;27;46342;-55
2022/09/15 02:25:32;;;;;;;;;7.50;5.50;;;;;20.41;59.73;100216.28;5051253;28;46248;-48
2022/09/15 02:28:01;;;;;;;;;5.50;5.25;;;;;20.37;59.67;100220.16;5042577;27;45274;-51
2022/09/15 02:30:30;;;;;;;;;12.25;8.25;;;;;20.30;59.94;100217.09;5060361;27;45315;-49
2022/09/15 02:32:58;;;;;;;;;12.75;10.00;;;;;20.31;59.89;100224.13;5056790;27;45628;-52
2022/09/15 02:35:25;;;;;;;;;11.75;11.75;;;;;20.30;59.78;100214.44;5053328;28;46106;-51
2022/09/15 02:37:51;;;;;;;;;12.50;9.75;;;;;20.27;60.06;100220.84;5043095;28;45452;-51
2022/09/15 02:40:16;;;;;;;;;12.00;10.50;;;;;20.24;59.87;100214.94;5072021;28;63724;-52
2022/09/15 02:42:51;;;;;;;;;12.50;12.00;;;;;20.20;59.68;100208.13;5070953;27;62060;-52
2022/09/15 02:45:16;;;;;;;;;17.75;12.25;;;;;20.17;60.04;100219.84;5073369;28;46261;-50
2022/09/15 02:47:42;;;;;;;;;13.50;10.50;;;;;20.17;59.73;100218.97;5050771;28;73305;-52
2022/09/15 02:50:07;;;;;;;;;12.00;10.00;;;;;20.16;60.07;100220.81;5075811;27;45704;-48
2022/09/15 02:52:32;;;;;;;;;12.00;10.25;;;;;20.08;59.64;100212.59;5069120;28;45427;-50
2022/09/15 02:54:59;;;;;;;;;10.00;9.00;;;;;20.13;59.61;100217.53;5065382;28;66545;-52
2022/09/15 02:57:24;;;;;;;;;16.00;12.00;;;;;20.10;59.81;100222.13;5066545;27;46863;-50
2022/09/15 03:02:34;;;;;;;;;19.25;13.50;;;;;20.06;59.78;100222.44;5065739;28;45475;-49
2022/09/15 03:04:59;;;;;;;;;17.50;12.00;;;;;20.05;59.73;100218.13;5073910;28;45398;-46
2022/09/15 03:07:25;;;;;;;;;13.50;12.00;;;;;20.04;59.87;100219.94;5076040;27;45529;-47
2022/09/15 03:09:51;;;;;;;;;15.75;14.00;;;;;20.04;60.12;100219.94;5077656;27;45250;-47
2022/09/15 03:12:16;;;;;;;;;16.50;14.50;;;;;20.02;59.65;100221.84;5070935;27;45412;-50
2022/09/15 03:14:42;;;;;;;;;17.00;13.00;;;;;19.99;59.93;100219.44;5076758;28;45301;-50
2022/09/15 03:17:07;;;;;;;;;16.25;15.75;;;;;19.97;59.63;100212.53;5075257;27;45384;-47
2022/09/15 03:19:33;;;;;;;;;17.75;11.50;;;;;19.97;59.39;100223.16;5078176;27;45276;-48
2022/09/15 03:21:58;;;;;;;;;14.00;12.50;;;;;19.95;59.61;100219.75;5078073;27;56371;-52
2022/09/15 03:24:23;;;;;;;;;11.50;10.00;;;;;19.94;59.40;100220.72;5074768;27;47779;-46
2022/09/15 03:26:48;;;;;;;;;11.25;9.75;;;;;19.90;59.16;100220.09;5078101;27;64879;-50
2022/09/15 03:29:14;;;;;;;;;15.50;12.00;;;;;19.86;59.00;100221.28;5059200;28;49428;-47
2022/09/15 03:31:39;;;;;;;;;10.00;9.25;;;;;19.84;59.17;100223.22;5080727;27;45163;-46
2022/09/15 03:34:05;;;;;;;;;12.75;10.00;;;;;19.82;58.52;100226.00;5077351;27;46234;-47
2022/09/15 03:36:31;;;;;;;;;11.50;10.50;;;;;19.82;58.82;100225.16;5078983;27;45491;-49
2022/09/15 03:38:57;;;;;;;;;11.00;11.00;;;;;19.80;58.76;100230.56;5068455;27;62408;-48
2022/09/15 03:41:23;;;;;;;;;11.00;9.00;;;;;19.78;58.78;100221.88;5059254;28;45319;-48
2022/09/15 03:43:48;;;;;;;;;13.00;10.25;;;;;19.79;58.30;100230.69;5074846;27;45448;-49
2022/09/15 03:46:14;;;;;;;;;13.50;9.75;;;;;19.78;58.17;100226.31;5073652;28;45432;-48
2022/09/15 03:48:39;;;;;;;;;13.50;10.25;;;;;19.74;58.33;100231.00;5074534;27;53842;-47
2022/09/15 03:51:06;;;;;;;;;10.50;8.50;;;;;19.71;58.18;100228.56;5076040;27;45332;-48
2022/09/15 03:53:36;;;;;;;;;11.00;9.75;;;;;19.68;58.36;100232.28;5068906;28;46227;-49
2022/09/15 03:56:08;;;;;;;;;11.00;10.25;;;;;19.65;58.15;100231.66;5080559;27;45756;-49
2022/09/15 03:58:33;;;;;;;;;14.25;10.00;;;;;19.62;58.05;100232.75;5080120;27;45394;-48
2022/09/15 04:00:58;;;;;;;;;14.75;11.00;;;;;19.59;57.87;100235.59;5080742;27;45173;-49
2022/09/15 04:03:24;;;;;;;;;12.75;12.00;;;;;19.54;58.00;100243.06;5073981;27;75441;-46
2022/09/15 04:05:49;;;;;;;;;14.25;11.00;;;;;19.48;57.91;100241.69;5075074;27;58947;-48
2022/09/15 04:08:14;;;;;;;;;16.75;13.00;;;;;19.40;57.76;100236.09;5071222;27;66633;-48
2022/09/15 04:10:40;;;;;;;;;15.75;10.25;;;;;19.38;58.00;100238.00;5075975;28;56474;-48
2022/09/15 04:13:05;;;;;;;;;13.00;11.50;;;;;19.34;57.91;100233.88;5073163;27;46261;-47
2022/09/15 04:15:31;;;;;;;;;10.75;10.00;;;;;19.31;57.90;100248.19;5074494;28;45466;-48
2022/09/15 04:17:56;;;;;;;;;11.25;10.25;;;;;19.28;58.00;100244.94;5071206;28;67624;-49
2022/09/15 04:20:21;;;;;;;;;11.25;10.25;;;;;19.22;58.03;100246.22;5076220;27;65082;-46
2022/09/15 04:22:47;;;;;;;;;19.00;13.50;;;;;19.18;57.99;100250.06;5079805;27;63288;-48
2022/09/15 04:25:13;;;;;;;;;14.75;13.00;;;;;19.11;58.01;100246.97;5059875;28;45549;-49
2022/09/15 04:27:38;;;;;;;;;14.00;13.00;;;;;19.08;57.86;100246.34;5074314;27;45354;-48
2022/09/15 04:30:05;;;;;;;;;14.50;11.75;;;;;19.03;58.10;100257.25;5074350;27;69579;-49
2022/09/15 04:32:31;;;;;;;;;12.50;11.50;;;;;18.99;58.25;100244.34;5079098;28;46751;-49
2022/09/15 04:34:56;;;;;;;;;17.50;14.25;;;;;18.98;58.05;100254.09;5074558;28;45276;-51
2022/09/15 04:37:22;;;;;;;;;13.00;11.75;;;;;18.97;58.04;100255.06;5077605;28;45537;-49
2022/09/15 04:39:47;;;;;;;;;15.00;13.00;;;;;18.94;58.14;100252.63;5079706;27;45604;-49
2022/09/15 04:42:13;;;;;;;;;18.75;13.75;;;;;18.96;58.13;100266.59;5077091;27;46637;-49
2022/09/15 04:44:39;;;;;;;;;19.75;14.00;;;;;18.99;57.95;100270.88;5079523;27;45317;-49
2022/09/15 04:47:04;;;;;;;;;17.00;15.25;;;;;18.97;58.10;100269.16;5074482;27;47210;-48
2022/09/15 04:49:30;;;;;;;;;18.25;15.50;;;;;18.95;58.08;100272.88;5077273;28;49722;-47
2022/09/15 04:51:56;;;;;;;;;19.00;15.50;;;;;18.95;57.60;100275.53;5074176;27;46237;-48
2022/09/15 04:54:22;;;;;;;;;19.25;15.25;;;;;18.93;57.84;100274.78;5074073;28;45464;-48
2022/09/15 04:56:48;;;;;;;;;16.75;14.00;;;;;18.91;58.06;100272.25;5075441;27;45411;-49
2022/09/15 04:59:17;;;;;;;;;16.50;14.00;;;;;18.89;57.99;100279.47;5073323;28;45389;-47
2022/09/15 05:01:43;;;;;;;;;15.50;15.00;;;;;18.84;58.01;100281.59;5069498;27;45444;-47
2022/09/15 05:04:09;;;;;;;;;15.00;12.75;;;;;18.77;58.51;100291.72;5078845;27;45233;-46
2022/09/15 05:06:35;;;;;;;;;18.75;14.75;;;;;18.74;58.81;100291.09;5078422;28;45430;-48
2022/09/15 05:09:01;;;;;;;;;18.00;12.25;;;;;18.72;58.24;100298.28;5077795;27;45264;-47
2022/09/15 05:11:27;;;;;;;;;17.75;14.75;;;;;18.73;58.13;100302.63;5077368;28;45469;-46
2022/09/15 05:13:53;;;;;;;;;13.25;11.00;;;;;18.73;57.90;100299.97;5078202;27;45433;-48
2022/09/15 05:16:20;;;;;;;;;13.25;12.00;;;;;18.73;58.63;100302.63;5071076;27;45323;-46
2022/09/15 05:18:47;;;;;;;;;14.50;12.50;;;;;18.71;58.38;100307.19;5072090;27;45364;-47
2022/09/15 05:21:16;;;;;;;;;10.75;10.75;;;;;18.71;58.61;100305.38;5078569;28;45444;-50
2022/09/15 05:23:42;;;;;;;;;11.75;8.75;;;;;18.71;58.63;100308.03;5079518;27;45525;-50
2022/09/15 05:26:11;;;;;;;;;9.75;7.00;;;;;18.72;58.59;100311.56;5071095;27;45462;-48
2022/09/15 05:28:37;;;;;;;;;14.50;11.00;;;;;18.70;58.82;100311.66;5076494;27;45629;-47
2022/09/15 05:31:11;;;;;;;;;11.00;8.75;;;;;18.72;58.68;100320.34;5073066;27;46164;-49
2022/09/15 05:33:36;;;;;;;;;17.00;12.50;;;;;18.74;58.65;100314.94;5053321;28;45407;-47
2022/09/15 05:36:03;;;;;;;;;14.00;13.00;;;;;18.74;58.71;100321.09;5070312;27;45218;-45
2022/09/15 05:38:29;;;;;;;;;13.25;12.25;;;;;18.72;58.68;100328.28;5073928;27;45338;-48
2022/09/15 05:41:03;;;;;;;;;14.00;11.00;;;;;18.72;58.63;100327.44;5075475;28;45523;-46
2022/09/15 05:43:30;;;;;;;;;17.75;12.50;;;;;18.70;58.93;100335.50;5075946;27;45772;-46
2022/09/15 05:45:56;;;;;;;;;12.25;9.75;;;;;18.68;59.08;100329.47;5072545;27;45589;-47
2022/09/15 05:48:21;;;;;;;;;15.25;12.00;;;;;18.66;58.97;100334.03;5074948;27;45359;-48
2022/09/15 05:50:48;;;;;;;;;14.00;12.50;;;;;18.65;59.03;100334.97;5071577;28;46356;-47
2022/09/15 05:53:14;;;;;;;;;15.50;12.00;;;;;18.58;59.14;100323.91;5054877;27;45375;-49
2022/09/15 05:55:39;;;;;;;;;14.50;13.25;;;;;18.62;59.19;100334.31;5073171;27;45526;-47
2022/09/15 05:58:05;;;;;;;;;16.75;13.25;;;;;18.62;58.86;100344.91;5057749;28;45516;-47
2022/09/15 06:00:30;;;;;;;;;15.50;12.50;;;;;18.60;58.77;100345.03;5074984;27;45448;-48
2022/09/15 06:02:56;;;;;;;;;15.50;11.00;;;;;18.57;58.97;100343.44;5069302;27;62144;-50
2022/09/15 06:05:21;;;;;;;;;16.25;12.50;;;;;18.55;58.94;100345.31;5075259;27;66568;-50
2022/09/15 06:07:46;;;;;;;;;18.75;14.25;;;;;18.51;58.95;100348.28;5069864;27;73629;-47
2022/09/15 06:10:11;;;;;;;;;25.25;16.25;;;;;18.49;59.16;100355.50;5075233;27;69910;-47
2022/09/15 06:12:37;;;;;;;;;16.25;15.50;;;;;18.44;59.38;100355.78;5054699;27;45364;-46
2022/09/15 06:15:02;;;;;;;;;20.00;13.75;;;;;18.40;59.23;100357.78;5077435;27;45312;-47
2022/09/15 06:17:31;;;;;;;;;16.50;13.25;;;;;18.36;59.27;100366.03;5061042;28;46059;-47
2022/09/15 06:19:56;;;;;;;;;19.25;16.00;;;;;18.34;59.36;100365.28;5068950;28;46120;-50
2022/09/15 06:22:22;;;;;;;;;19.25;17.00;;;;;18.33;59.28;100368.91;5052532;28;45370;-49
2022/09/15 06:24:48;;;;;;;;;18.25;16.25;;;;;18.35;59.46;100373.13;5068354;27;45495;-50
2022/09/15 06:27:13;;;;;;;;;19.00;14.50;;;;;18.37;59.23;100381.00;5073197;27;45337;-48
2022/09/15 06:29:39;;;;;;;;;16.50;12.25;;;;;18.34;59.22;100376.75;5068246;28;45317;-49
2022/09/15 06:32:04;;;;;;;;;36.25;22.25;;;;;18.34;59.00;100381.19;5055436;27;45455;-51
2022/09/15 06:34:31;;;;;;;;;26.75;21.75;;;;;18.33;59.27;100393.59;5053281;27;45428;-50
2022/09/15 06:36:58;;;;;;;;;17.75;16.25;;;;;18.32;59.24;100383.94;5058697;28;45612;-48
2022/09/15 06:39:23;;;;;;;;;18.75;17.00;;;;;18.32;59.50;100391.03;5041702;28;47318;-52
2022/09/15 06:41:49;;;;;;;;;12.50;10.50;;;;;18.30;59.44;100393.78;5053277;28;45428;-49
2022/09/15 06:44:14;;;;;;;;;19.75;18.75;;;;;18.28;59.34;100397.50;5060737;28;45484;-50
2022/09/15 06:46:39;;;;;;;;;23.75;18.75;;;;;18.28;59.24;100394.84;5071836;28;67599;-48
2022/09/15 06:49:05;;;;;;;;;20.00;17.75;;;;;18.27;59.30;100401.91;5074511;27;45391;-51
2022/09/15 06:51:34;;;;;;;;;22.50;17.50;;;;;18.30;59.25;100403.53;5072287;27;45202;-50
2022/09/15 06:54:00;;;;;;;;;26.50;18.50;;;;;18.31;59.25;100413.16;5066378;27;45835;-47
2022/09/15 06:56:26;;;;;;;;;21.75;20.25;;;;;18.30;59.02;100411.47;5071350;28;45419;-50
2022/09/15 06:58:52;;;;;;;;;21.25;18.75;;;;;18.27;58.99;100407.22;5062605;28;46192;-47
2022/09/15 07:01:28;;;;;;;;;28.50;19.25;;;;;18.29;59.04;100415.06;5062820;28;45247;-47
2022/09/15 07:03:55;;;;;;;;;23.00;16.00;;;;;18.30;59.05;100416.78;5079268;28;45315;-47
2022/09/15 07:06:21;;;;;;;;;24.25;19.75;;;;;18.31;59.03;100423.75;5056955;27;45505;-48
2022/09/15 07:08:48;;;;;;;;;23.50;20.25;;;;;18.32;58.82;100420.19;5075701;28;46303;-49
2022/09/15 07:11:14;;;;;;;;;20.00;13.25;;;;;18.30;59.07;100422.91;5032924;28;45444;-49
2022/09/15 07:13:41;;;;;;;;;20.75;18.25;;;;;18.33;58.95;100419.25;5077401;28;45322;-50
2022/09/15 07:16:08;;;;;;;;;27.00;20.00;;;;;18.34;58.96;100424.44;5075423;28;45567;-45
2022/09/15 07:18:34;;;;;;;;;24.75;18.75;;;;;18.36;58.92;100430.50;5080774;27;45410;-51
2022/09/15 07:21:05;;;;;;;;;30.75;21.25;;;;;18.37;58.65;100436.63;5075340;28;45435;-46
2022/09/15 07:23:32;;;;;;;;;26.50;20.50;;;;;18.36;58.50;100432.25;5039158;28;45384;-47
2022/09/15 07:26:15;;;;;;;;;30.50;20.75;;;;;18.37;58.51;100436.63;5075737;28;45272;-45
2022/09/15 07:28:43;;;;;;;;;29.00;23.50;;;;;18.40;58.59;100439.09;5059435;28;45490;-48
2022/09/15 07:31:11;;;;;;;;;30.50;24.25;;;;;18.43;58.41;100444.16;5073519;28;45326;-48
2022/09/15 07:33:36;;;;;;;;;23.25;19.25;;;;;18.45;58.15;100442.28;5078256;28;45327;-44
2022/09/15 07:36:03;;;;;;;;;25.25;21.00;;;;;18.46;58.31;100440.47;5053071;27;51682;-46
2022/09/15 07:38:29;;;;;;;;;21.00;18.75;;;;;18.49;58.10;100451.72;5068301;28;47234;-46
2022/09/15 07:40:54;;;;;;;;;28.25;21.50;;;;;18.50;57.93;100447.28;5070397;27;55195;-46
2022/09/15 07:43:19;;;;;;;;;23.00;21.00;;;;;18.51;58.08;100447.19;5056422;28;62726;-47
2022/09/15 07:45:45;;;;;;;;;22.00;21.00;;;;;18.53;57.73;100445.28;5074547;28;45319;-49
2022/09/15 07:48:10;;;;;;;;;25.25;18.75;;;;;18.61;57.78;100452.75;5076536;28;46268;-45
2022/09/15 07:50:36;;;;;;;;;24.25;20.50;;;;;18.67;57.96;100449.69;5053187;28;45354;-46
2022/09/15 07:53:01;;;;;;;;;20.25;13.75;;;;;18.73;57.64;100459.91;5065532;28;47308;-47
2022/09/15 07:55:27;;;;;;;;;29.75;19.75;;;;;18.81;57.59;100451.44;5077631;28;73221;-46
2022/09/15 07:57:59;;;;;;;;;19.25;15.25;;;;;18.90;57.28;100460.59;5078434;28;46408;-45
2022/09/15 08:00:25;;;;;;;;;26.25;19.25;;;;;18.93;57.00;100458.59;5054728;28;45881;-45
2022/09/15 08:02:51;;;;;;;;;23.75;19.00;;;;;18.96;56.88;100466.38;5054225;28;45343;-48
2022/09/15 08:05:16;;;;;;;;;29.50;23.00;;;;;19.00;56.43;100461.69;5079097;27;45103;-52
2022/09/15 08:07:42;;;;;;;;;18.25;17.75;;;;;19.03;56.36;100465.94;5079137;27;45938;-49
2022/09/15 08:10:08;;;;;;;;;17.25;14.50;;;;;19.04;56.51;100468.50;5050545;28;65795;-51
2022/09/15 08:12:34;;;;;;;;;23.25;18.50;;;;;19.09;56.54;100473.50;5081346;27;45282;-51
2022/09/15 08:14:59;;;;;;;;;18.75;17.75;;;;;19.13;55.96;100467.03;5082042;27;45158;-47
2022/09/15 08:17:25;;;;;;;;;26.50;20.75;;;;;19.20;55.95;100468.31;5045674;28;48528;-47
2022/09/15 08:19:50;;;;;;;;;22.50;18.25;;;;;19.27;55.89;100460.78;5068834;27;45243;-47
2022/09/15 08:22:15;;;;;;;;;35.00;25.50;;;;;19.32;55.54;100469.28;5061613;28;45482;-46
2022/09/15 08:24:41;;;;;;;;;23.75;19.25;;;;;19.38;55.25;100476.81;5079989;28;68021;-46
2022/09/15 08:27:06;;;;;;;;;29.50;22.00;;;;;19.42;55.18;100477.47;5080314;27;45368;-47
2022/09/15 08:29:31;;;;;;;;;20.00;17.25;;;;;19.49;55.28;100478.75;5080436;28;45358;-48
2022/09/15 08:31:57;;;;;;;;;21.00;18.25;;;;;19.57;55.04;100488.84;5081976;27;45406;-50
2022/09/15 08:34:23;;;;;;;;;17.75;16.00;;;;;19.65;55.03;100500.63;5079825;28;45346;-45
2022/09/15 08:36:48;;;;;;;;;24.75;16.50;;;;;19.76;54.69;100499.94;5071090;28;46098;-45
2022/09/15 08:39:14;;;;;;;;;19.00;16.00;;;;;19.86;54.27;100503.63;5074702;27;45426;-47
2022/09/15 08:41:43;;;;;;;;;21.25;14.50;;;;;19.97;53.81;100504.69;5081047;27;45374;-47
2022/09/15 08:44:23;;;;;;;;;17.50;14.75;;;;;20.07;53.71;100509.25;5063349;27;45491;-47
2022/09/15 08:47:04;;;;;;;;;19.00;14.50;;;;;20.19;53.39;100519.97;5079483;28;45672;-46
2022/09/15 08:49:44;;;;;;;;;13.25;11.00;;;;;20.27;52.93;100501.66;5064807;28;45450;-46
2022/09/15 08:52:15;;;;;;;;;8.75;8.00;;;;;20.34;52.83;100510.91;5063077;28;45536;-45
2022/09/15 08:54:40;;;;;;;;;15.00;11.00;;;;;20.43;52.35;100514.69;5062778;28;45467;-46
2022/09/15 08:57:13;;;;;;;;;13.50;9.00;;;;;20.52;52.63;100516.69;5059956;28;47651;-48
2022/09/15 08:59:38;;;;;;;;;8.00;8.00;;;;;20.59;51.72;100511.78;5049417;28;45688;-48
2022/09/15 09:02:17;;;;;;;;;10.25;6.00;;;;;20.67;51.85;100520.09;5060471;27;45495;-47
2022/09/15 09:05:08;;;;;;;;;8.50;8.00;;;;;20.75;51.10;100511.53;5062830;28;45400;-47
2022/09/15 09:07:56;;;;;;;;;9.50;6.00;;;;;20.83;51.36;100514.50;5077986;27;45301;-45
2022/09/15 09:10:30;;;;;;;;;13.75;8.75;;;;;20.92;51.28;100516.47;5073065;27;45516;-45
2022/09/15 09:13:02;;;;;;;;;8.50;8.00;;;;;21.02;51.23;100514.84;5081781;27;45257;-47
2022/09/15 09:15:48;;;;;;;;;7.25;5.50;;;;;21.14;50.75;100506.88;5061990;28;45304;-48
2022/09/15 09:18:32;;;;;;;;;7.00;6.50;;;;;21.22;50.02;100516.00;5079221;27;45331;-46
2022/09/15 09:21:20;;;;;;;;;4.25;3.50;;;;;21.32;49.05;100515.28;5070274;27;45257;-49
2022/09/15 09:23:53;;;;;;;;;6.50;5.00;;;;;21.36;49.42;100519.44;5069801;27;45428;-48
2022/09/15 09:26:19;;;;;;;;;8.75;6.25;;;;;21.45;48.90;100515.22;5061269;28;45201;-46
2022/09/15 09:28:51;;;;;;;;;6.25;5.75;;;;;21.52;49.42;100519.16;5061865;28;61167;-48
2022/09/15 09:31:20;;;;;;;;;4.00;4.00;;;;;21.56;47.66;100515.28;5059648;28;45383;-47
2022/09/15 09:33:52;;;;;;;;;5.00;5.00;;;;;21.61;48.66;100521.09;5050712;28;45394;-47
2022/09/15 09:36:18;;;;;;;;;7.50;4.75;;;;;21.65;48.82;100519.88;5062210;27;45260;-46
2022/09/15 09:38:46;;;;;;;;;9.00;6.25;;;;;21.69;47.24;100515.19;5054171;28;47164;-46
2022/09/15 09:41:24;;;;;;;;;9.00;5.75;;;;;21.73;49.14;100516.66;5062373;27;45362;-46
2022/09/15 09:43:51;;;;;;;;;5.25;4.00;;;;;21.78;48.47;100515.31;5058789;28;45399;-47
2022/09/15 09:46:18;;;;;;;;;14.75;11.50;;;;;21.84;48.46;100510.50;5060483;28;45433;-48
2022/09/15 09:48:49;;;;;;;;;17.00;12.25;;;;;21.90;48.82;100516.19;5080644;27;46812;-47
2022/09/15 09:51:34;;;;;;;;;15.00;10.50;;;;;21.97;47.33;100520.06;5059674;28;45861;-45
2022/09/15 09:54:05;;;;;;;;;11.00;6.00;;;;;22.02;46.86;100517.03;5045328;28;45498;-47
2022/09/15 09:56:30;;;;;;;;;5.75;5.00;;;;;22.04;47.56;100523.09;5070822;28;45403;-45
2022/09/15 09:58:56;;;;;;;;;5.50;3.00;;;;;22.10;48.08;100530.59;5068186;28;64092;-48
2022/09/15 10:01:24;;;;;;;;;7.00;5.00;;;;;22.17;48.16;100522.97;5076607;28;64860;-47
2022/09/15 10:04:18;;;;;;;;;6.00;5.00;;;;;22.25;47.53;100520.53;5079612;28;45345;-49
2022/09/15 10:06:44;;;;;;;;;3.00;3.00;;;;;22.31;46.93;100527.22;5071214;28;45521;-47
2022/09/15 10:09:17;;;;;;;;;7.50;5.50;;;;;22.31;46.74;100529.88;5079930;28;46070;-47
2022/09/15 10:11:45;;;;;;;;;4.50;4.25;;;;;22.29;46.61;100531.84;5069015;28;45389;-46
2022/09/15 10:14:27;;;;;;;;;7.25;5.00;;;;;22.29;46.67;100530.03;5079668;28;46159;-46
2022/09/15 10:16:57;;;;;;;;;5.00;4.50;;;;;22.29;46.57;100522.03;5049406;27;45426;-45
2022/09/15 10:19:22;;;;;;;;;9.00;6.25;;;;;22.27;46.64;100518.63;5055291;28;45406;-46
2022/09/15 10:21:48;;;;;;;;;6.00;5.50;;;;;22.28;47.00;100517.66;5066545;28;45292;-46
2022/09/15 10:24:23;;;;;;;;;7.75;4.25;;;;;22.29;46.59;100516.72;5072226;28;45296;-47
2022/09/15 10:26:49;;;;;;;;;4.00;4.00;;;;;22.32;46.85;100512.94;5060339;28;45458;-47
2022/09/15 10:29:16;;;;;;;;;6.25;3.00;;;;;22.31;45.55;100512.09;5065816;28;45261;-47
2022/09/15 10:31:43;;;;;;;;;5.50;5.00;;;;;22.32;46.51;100512.94;5057450;28;45384;-45
2022/09/15 10:34:31;;;;;;;;;8.00;5.00;;;;;22.30;46.43;100510.38;5079282;27;45354;-46
2022/09/15 10:37:12;;;;;;;;;6.00;4.00;;;;;22.29;46.37;100518.50;5060047;28;45546;-45
2022/09/15 10:39:52;;;;;;;;;5.00;4.00;;;;;22.30;46.60;100522.88;5053843;28;45745;-49
2022/09/15 10:42:27;;;;;;;;;7.00;3.00;;;;;22.30;46.06;100520.22;5078862;27;45377;-50
2022/09/15 10:45:17;;;;;;;;;6.00;4.00;;;;;22.28;46.25;100522.16;5054413;28;45383;-47
2022/09/15 10:48:01;;;;;;;;;3.00;3.00;;;;;22.27;46.53;100521.28;5066667;27;45454;-47
2022/09/15 10:50:54;;;;;;;;;80.50;64.75;;;;;22.30;46.16;100518.38;5072894;28;46327;-46
2022/09/15 10:53:51;;;;;;;;;5.75;5.00;;;;;22.36;45.49;100522.38;5074329;27;45527;-46
2022/09/15 10:56:41;;;;;;;;;6.50;4.00;;;;;22.45;46.18;100518.13;5060937;28;45391;-50
2022/09/15 10:59:19;;;;;;;;;14.25;8.25;;;;;22.53;45.89;100524.53;5039005;28;45304;-46
2022/09/15 11:02:11;;;;;;;;;5.50;5.25;;;;;22.59;45.31;100517.00;5074222;27;45315;-46
2022/09/15 11:04:45;;;;;;;;;18.50;17.25;;;;;22.66;45.56;100518.22;5075163;27;45281;-47
2022/09/15 11:07:38;;;;;;;;;6.75;4.00;;;;;22.70;45.58;100524.97;5038028;28;45512;-46
2022/09/15 11:10:03;;;;;;;;;12.25;6.75;;;;;22.70;45.20;100520.50;5073142;27;45346;-49
2022/09/15 11:12:52;;;;;;;;;9.00;6.67;;;;;22.66;44.57;100511.03;5068060;28;45329;-46
2022/09/15 11:15:44;;;;;;;;;6.75;6.75;;;;;22.67;44.96;100514.56;5053080;28;45288;-46
2022/09/15 11:18:12;;;;;;;;;18.75;13.00;;;;;22.72;44.81;100515.06;5061115;28;45270;-50
2022/09/15 11:20:49;;;;;;;;;6.50;6.00;;;;;22.75;45.06;100509.44;5063838;28;45495;-46
2022/09/15 11:23:27;;;;;;;;;8.50;5.75;;;;;22.81;45.28;100508.13;5060596;28;47104;-48
2022/09/15 11:26:04;;;;;;;;;10.75;6.00;;;;;22.86;44.90;100504.09;5045434;28;45723;-46
2022/09/15 11:28:48;;;;;;;;;6.50;6.00;;;;;22.89;44.74;100500.31;5066119;27;45375;-47
2022/09/15 11:31:26;;;;;;;;;10.75;9.00;;;;;22.96;44.73;100498.00;5070990;28;45409;-47
2022/09/15 11:33:58;;;;;;;;;5.00;4.00;;;;;22.99;44.97;100493.25;5052649;28;45685;-53